createdAt,value
2023-09-14T00:02:07.113Z,18.26
2023-09-14T00:05:10.986Z,18.34
2023-09-14T00:08:13.843Z,18.34
2023-09-14T00:11:16.453Z,18.29
2023-09-14T00:14:22.668Z,18.31
2023-09-14T00:17:25.330Z,18.28
2023-09-14T00:20:35.466Z,18.26
2023-09-14T00:23:38.234Z,18.21
2023-09-14T00:26:40.884Z,18.23
2023-09-14T00:29:43.645Z,18.22
2023-09-14T00:32:48.710Z,18.12
2023-09-14T00:35:51.495Z,18.11
2023-09-14T00:38:54.090Z,18.12
2023-09-14T00:41:56.615Z,18.08
2023-09-14T00:45:02.308Z,18.05
2023-09-14T00:48:05.187Z,18.06
2023-09-14T00:51:08.104Z,18.10
2023-09-14T00:54:12.068Z,18.10
2023-09-14T00:57:18.597Z,18.12
2023-09-14T01:00:21.677Z,18.02
2023-09-14T01:03:25.904Z,18.11
2023-09-14T01:06:30.587Z,18.08
2023-09-14T01:09:34.265Z,18.09
2023-09-14T01:12:37.331Z,18.07
2023-09-14T01:15:43.258Z,18.05
2023-09-14T01:19:11.785Z,18.03
2023-09-14T01:22:17.283Z,17.99
2023-09-14T01:25:47.346Z,17.99
2023-09-14T01:28:50.319Z,18.00
2023-09-14T01:31:53.151Z,17.98
2023-09-14T01:34:56.069Z,18.00
2023-09-14T01:38:04.935Z,18.01
2023-09-14T01:41:08.305Z,18.00
2023-09-14T01:44:14.252Z,18.02
2023-09-14T01:47:18.133Z,18.04
2023-09-14T01:50:24.065Z,18.04
2023-09-14T01:53:29.501Z,18.06
2023-09-14T01:56:32.149Z,18.08
2023-09-14T01:59:34.736Z,18.08
2023-09-14T02:02:37.520Z,18.09
2023-09-14T02:05:41.448Z,18.10
2023-09-14T02:08:44.580Z,18.12
2023-09-14T02:11:47.604Z,18.13
2023-09-14T02:14:50.319Z,18.12
2023-09-14T02:17:55.913Z,18.14
2023-09-14T02:20:58.599Z,18.09
2023-09-14T02:24:01.849Z,18.13
2023-09-14T02:27:04.624Z,18.11
2023-09-14T02:30:08.171Z,18.11
2023-09-14T02:33:11.056Z,18.08
2023-09-14T02:36:13.782Z,18.06
2023-09-14T02:39:16.448Z,18.06
2023-09-14T02:42:19.120Z,17.99
2023-09-14T02:45:21.757Z,17.98
2023-09-14T02:48:24.512Z,17.98
2023-09-14T02:51:27.129Z,17.98
2023-09-14T02:54:29.732Z,17.97
2023-09-14T02:57:32.416Z,17.96
2023-09-14T03:00:41.094Z,17.96
2023-09-14T03:03:44.005Z,17.96
2023-09-14T03:06:46.738Z,17.94
2023-09-14T03:09:49.542Z,17.94
2023-09-14T03:12:52.390Z,17.94
2023-09-14T03:15:59.582Z,17.90
2023-09-14T03:19:02.309Z,17.91
2023-09-14T03:22:08.380Z,17.92
2023-09-14T03:25:11.170Z,17.92
2023-09-14T03:28:13.916Z,17.91
2023-09-14T03:31:16.771Z,17.90
2023-09-14T03:34:20.264Z,17.88
2023-09-14T03:37:25.862Z,17.85
2023-09-14T03:40:28.617Z,17.80
2023-09-14T03:43:31.308Z,17.84
2023-09-14T03:46:34.215Z,17.82
2023-09-14T03:49:37.027Z,17.80
2023-09-14T03:52:39.750Z,17.81
2023-09-14T03:55:43.269Z,17.78
2023-09-14T03:58:46.200Z,17.78
2023-09-14T04:01:49.379Z,17.79
2023-09-14T04:04:52.101Z,17.81
2023-09-14T04:07:55.715Z,17.81
2023-09-14T04:11:01.063Z,17.81
2023-09-14T04:14:03.976Z,17.82
2023-09-14T04:17:06.688Z,17.84
2023-09-14T04:20:12.181Z,17.84
2023-09-14T04:23:17.873Z,17.87
2023-09-14T04:26:21.020Z,17.88
2023-09-14T04:29:23.718Z,17.88
2023-09-14T04:32:26.632Z,17.89
2023-09-14T04:35:29.322Z,17.89
2023-09-14T04:38:33.901Z,17.90
2023-09-14T04:41:36.602Z,17.90
2023-09-14T04:44:39.321Z,17.92
2023-09-14T04:47:42.054Z,17.93
2023-09-14T04:50:45.006Z,17.96
2023-09-14T04:53:47.716Z,17.95
2023-09-14T04:56:50.623Z,17.98
2023-09-14T04:59:53.235Z,18.03
2023-09-14T05:02:55.859Z,18.07
2023-09-14T05:05:59.498Z,18.10
2023-09-14T05:09:02.219Z,18.13
2023-09-14T05:12:06.177Z,18.15
2023-09-14T05:15:09.507Z,18.18
2023-09-14T05:18:12.240Z,18.20
2023-09-14T05:21:15.046Z,18.21
2023-09-14T05:24:18.918Z,18.25
2023-09-14T05:27:21.737Z,18.28
2023-09-14T05:30:26.284Z,18.30
2023-09-14T05:33:29.097Z,18.33
2023-09-14T05:36:31.810Z,18.33
2023-09-14T05:39:34.534Z,18.36
2023-09-14T05:42:38.722Z,18.34
2023-09-14T05:45:42.969Z,18.39
2023-09-14T05:48:45.862Z,18.40
2023-09-14T05:51:49.584Z,18.46
2023-09-14T05:54:52.412Z,18.47
2023-09-14T05:57:55.711Z,18.50
2023-09-14T06:01:01.605Z,18.49
2023-09-14T06:04:04.649Z,18.59
2023-09-14T06:07:07.465Z,18.66
2023-09-14T06:10:10.426Z,18.67
2023-09-14T06:13:13.308Z,18.76
2023-09-14T06:16:15.991Z,18.78
2023-09-14T06:19:19.211Z,18.84
2023-09-14T06:22:22.121Z,18.87
2023-09-14T06:25:24.874Z,18.93
2023-09-14T06:28:27.653Z,18.96
2023-09-14T06:31:30.570Z,19.00
2023-09-14T06:34:37.161Z,18.98
2023-09-14T06:37:39.852Z,19.05
2023-09-14T06:40:42.559Z,18.99
2023-09-14T06:43:46.415Z,19.09
2023-09-14T06:46:49.418Z,19.17
2023-09-14T06:49:52.123Z,19.20
2023-09-14T06:52:54.901Z,19.24
2023-09-14T06:55:57.573Z,19.35
2023-09-14T06:59:00.391Z,19.39
2023-09-14T07:02:06.990Z,19.42
2023-09-14T07:05:13.062Z,19.54
2023-09-14T07:08:15.825Z,19.61
2023-09-14T07:11:18.600Z,19.58
2023-09-14T07:14:21.527Z,19.77
2023-09-14T07:17:24.228Z,19.85
2023-09-14T07:20:26.945Z,19.84
2023-09-14T07:23:31.762Z,20.09
2023-09-14T07:26:36.281Z,20.17
2023-09-14T07:29:39.059Z,20.30
2023-09-14T07:32:42.684Z,20.35
2023-09-14T07:35:48.452Z,20.31
2023-09-14T07:38:51.216Z,20.24
2023-09-14T07:41:57.299Z,20.20
2023-09-14T07:45:00.023Z,20.35
2023-09-14T07:48:05.087Z,20.35
2023-09-14T07:51:07.881Z,20.52
2023-09-14T07:54:10.614Z,20.46
2023-09-14T07:57:13.440Z,20.48
2023-09-14T08:00:16.495Z,20.61
2023-09-14T08:03:19.483Z,20.50
2023-09-14T08:06:25.135Z,20.56
2023-09-14T08:09:29.266Z,20.71
2023-09-14T08:12:32.371Z,20.97
2023-09-14T08:15:35.391Z,21.02
2023-09-14T08:18:38.377Z,21.33
2023-09-14T08:21:41.140Z,21.27
2023-09-14T08:24:44.220Z,21.12
2023-09-14T08:27:47.185Z,21.04
2023-09-14T08:30:50.414Z,21.18
2023-09-14T08:33:53.741Z,21.11
2023-09-14T08:36:56.949Z,21.21
2023-09-14T08:40:00.202Z,20.95
2023-09-14T08:43:03.929Z,21.09
2023-09-14T08:46:08.543Z,21.20
2023-09-14T08:49:11.704Z,21.02
2023-09-14T08:52:17.200Z,21.05
2023-09-14T08:55:21.803Z,21.01
2023-09-14T08:58:25.300Z,20.93
2023-09-14T09:01:28.210Z,20.80
2023-09-14T09:04:31.548Z,20.86
2023-09-14T09:07:34.867Z,20.81
2023-09-14T09:10:41.954Z,20.86
2023-09-14T09:13:47.670Z,20.88
2023-09-14T09:16:51.085Z,20.77
2023-09-14T09:19:55.542Z,20.76
2023-09-14T09:23:01.040Z,20.80
2023-09-14T09:26:03.971Z,20.89
2023-09-14T09:29:24.193Z,21.00
2023-09-14T09:32:27.546Z,21.12
2023-09-14T09:35:32.374Z,21.37
2023-09-14T09:38:41.396Z,21.54
2023-09-14T09:41:47.110Z,21.67
2023-09-14T09:44:50.181Z,21.58
2023-09-14T09:47:54.350Z,21.60
2023-09-14T09:50:57.180Z,21.34
2023-09-14T09:54:08.214Z,21.38
2023-09-14T09:57:11.043Z,21.60
2023-09-14T10:00:14.664Z,21.37
2023-09-14T10:03:19.015Z,21.38
2023-09-14T10:06:22.419Z,21.46
2023-09-14T10:09:29.733Z,21.48
2023-09-14T10:12:32.951Z,21.43
2023-09-14T10:15:37.395Z,21.53
2023-09-14T10:18:40.830Z,21.63
2023-09-14T10:21:45.974Z,21.76
2023-09-14T10:24:51.296Z,21.71
2023-09-14T10:27:55.346Z,21.78
2023-09-14T10:31:00.321Z,21.63
2023-09-14T10:34:05.022Z,21.65
2023-09-14T10:37:10.779Z,21.68
2023-09-14T10:40:15.396Z,21.54
2023-09-14T10:43:18.368Z,21.91
2023-09-14T10:46:34.456Z,22.11
2023-09-14T10:49:38.125Z,22.21
2023-09-14T10:52:42.897Z,21.93
2023-09-14T10:55:45.727Z,21.92
2023-09-14T10:58:54.870Z,22.17
2023-09-14T11:05:19.211Z,22.36
2023-09-14T11:08:23.263Z,22.18
2023-09-14T11:11:43.176Z,22.15
2023-09-14T11:15:12.443Z,22.02
2023-09-14T11:18:19.016Z,21.92
2023-09-14T11:21:52.186Z,22.15
2023-09-14T11:24:56.460Z,22.18
2023-09-14T11:28:00.578Z,22.19
2023-09-14T11:31:03.796Z,22.10
2023-09-14T11:34:19.584Z,22.02
2023-09-14T11:37:24.876Z,22.03
2023-09-14T11:40:35.701Z,22.04
2023-09-14T11:44:33.087Z,22.17
2023-09-14T11:47:34.323Z,22.66
2023-09-14T11:50:42.945Z,22.71
2023-09-14T11:53:46.395Z,22.95
2023-09-14T11:56:50.457Z,22.92
2023-09-14T11:59:53.598Z,23.12
2023-09-14T12:02:56.313Z,23.75
2023-09-14T12:06:01.389Z,24.35
2023-09-14T12:09:06.930Z,24.01
2023-09-14T12:12:26.688Z,25.16
2023-09-14T12:15:31.456Z,25.41
2023-09-14T12:18:41.880Z,25.25
2023-09-14T12:21:45.080Z,27.02
2023-09-14T12:24:52.183Z,27.64
2023-09-14T12:27:55.351Z,27.22
2023-09-14T12:30:58.330Z,27.61
2023-09-14T12:34:01.620Z,27.60
2023-09-14T12:37:04.994Z,27.70
2023-09-14T12:40:11.764Z,27.77
2023-09-14T12:43:17.817Z,27.24
2023-09-14T12:46:22.482Z,26.95
2023-09-14T12:49:25.338Z,27.88
2023-09-14T12:52:28.964Z,28.20
2023-09-14T12:55:31.719Z,27.87
2023-09-14T12:58:34.932Z,27.93
2023-09-14T13:01:40.775Z,28.48
2023-09-14T13:04:44.183Z,28.02
2023-09-14T13:07:52.539Z,26.28
2023-09-14T13:10:57.803Z,25.68
2023-09-14T13:14:00.759Z,25.82
2023-09-14T13:17:03.596Z,25.54
2023-09-14T13:20:10.999Z,26.58
2023-09-14T13:23:13.922Z,26.86
2023-09-14T13:26:16.850Z,27.79
2023-09-14T13:29:22.657Z,28.14
2023-09-14T13:32:25.432Z,28.33
2023-09-14T13:35:30.165Z,27.62
2023-09-14T13:38:32.970Z,27.78
2023-09-14T13:41:36.135Z,28.56
2023-09-14T13:44:39.263Z,28.51
2023-09-14T13:47:43.260Z,28.65
2023-09-14T13:50:46.334Z,28.95
2023-09-14T13:53:49.198Z,29.54
2023-09-14T13:56:51.938Z,30.45
2023-09-14T13:59:54.731Z,29.47
2023-09-14T14:03:10.477Z,29.40
2023-09-14T14:06:13.608Z,29.53
2023-09-14T14:09:18.841Z,29.88
2023-09-14T14:12:21.707Z,29.03
2023-09-14T14:15:25.472Z,28.80
2023-09-14T14:18:28.927Z,28.15
2023-09-14T14:21:31.742Z,27.24
2023-09-14T14:24:34.641Z,26.91
2023-09-14T14:27:43.079Z,26.50
2023-09-14T14:30:45.900Z,26.32
2023-09-14T14:33:48.660Z,26.16
2023-09-14T14:36:51.547Z,26.33
2023-09-14T14:39:54.329Z,26.28
2023-09-14T14:42:57.149Z,25.70
2023-09-14T14:46:01.603Z,25.22
2023-09-14T14:49:04.827Z,25.16
2023-09-14T14:52:07.639Z,25.27
2023-09-14T14:55:10.391Z,25.41
2023-09-14T14:58:13.171Z,25.15
2023-09-14T15:01:17.042Z,25.09
2023-09-14T15:04:19.959Z,26.81
2023-09-14T15:07:22.685Z,27.48
2023-09-14T15:10:25.402Z,28.12
2023-09-14T15:13:31.294Z,27.32
2023-09-14T15:16:34.446Z,27.78
2023-09-14T15:19:37.380Z,26.16
2023-09-14T15:22:40.078Z,25.38
2023-09-14T15:25:42.885Z,24.52
2023-09-14T15:28:50.592Z,24.14
2023-09-14T15:31:53.405Z,24.22
2023-09-14T15:34:56.258Z,24.18
2023-09-14T15:37:59.126Z,23.81
2023-09-14T15:41:01.827Z,23.59
2023-09-14T15:44:05.850Z,23.26
2023-09-14T15:47:08.985Z,23.04
2023-09-14T15:50:11.713Z,22.79
2023-09-14T15:53:14.480Z,22.75
2023-09-14T15:56:17.744Z,22.70
2023-09-14T15:59:20.941Z,22.49
2023-09-14T16:02:23.768Z,22.34
2023-09-14T16:05:26.526Z,22.26
2023-09-14T16:08:29.750Z,22.22
2023-09-14T16:11:32.790Z,22.01
2023-09-14T16:14:35.600Z,21.99
2023-09-14T16:17:38.573Z,21.89
2023-09-14T16:20:43.014Z,21.82
2023-09-14T16:23:45.711Z,21.68
2023-09-14T16:26:51.327Z,21.65
2023-09-14T16:29:54.108Z,21.56
2023-09-14T16:32:57.960Z,21.45
2023-09-14T16:36:00.719Z,21.28
2023-09-14T16:39:08.162Z,21.17
2023-09-14T16:42:10.916Z,21.04
2023-09-14T16:45:13.902Z,20.88
2023-09-14T16:48:16.649Z,20.74
2023-09-14T16:51:19.657Z,20.59
2023-09-14T16:54:24.050Z,20.50
2023-09-14T16:57:26.848Z,20.36
2023-09-14T17:00:29.904Z,20.21
2023-09-14T17:03:32.677Z,20.11
2023-09-14T17:06:35.753Z,20.04
2023-09-14T17:09:38.518Z,19.95
2023-09-14T17:12:41.600Z,19.88
2023-09-14T17:15:44.417Z,19.80
2023-09-14T17:18:48.562Z,19.72
2023-09-14T17:21:51.737Z,19.63
2023-09-14T17:24:54.671Z,19.50
2023-09-14T17:27:57.486Z,19.43
2023-09-14T17:31:00.541Z,19.35
2023-09-14T17:34:04.861Z,19.24
2023-09-14T17:37:07.669Z,19.16
2023-09-14T17:40:10.848Z,19.11
2023-09-14T17:43:16.440Z,19.03
2023-09-14T17:46:20.193Z,18.96
2023-09-14T17:49:23.176Z,18.91
2023-09-14T17:52:26.513Z,18.84
2023-09-14T17:55:30.290Z,18.85
2023-09-14T17:58:33.108Z,18.79
2023-09-14T18:01:35.934Z,18.73
2023-09-14T18:04:38.759Z,18.64
2023-09-14T18:07:42.794Z,18.51
2023-09-14T18:10:45.607Z,18.37
2023-09-14T18:13:49.162Z,18.34
2023-09-14T18:16:51.994Z,18.26
2023-09-14T18:19:54.880Z,18.24
2023-09-14T18:22:57.630Z,18.21
2023-09-14T18:26:00.774Z,18.28
2023-09-14T18:29:04.782Z,18.19
2023-09-14T18:32:07.848Z,18.18
2023-09-14T18:35:10.845Z,18.15
2023-09-14T18:38:13.746Z,18.09
2023-09-14T18:41:18.022Z,18.06
2023-09-14T18:44:21.607Z,18.02
2023-09-14T18:47:24.417Z,18.02
2023-09-14T18:50:27.694Z,18.08
2023-09-14T18:53:32.165Z,18.12
2023-09-14T18:56:35.222Z,18.18
2023-09-14T18:59:38.081Z,18.20
2023-09-14T19:02:42.400Z,18.17
2023-09-14T19:05:46.936Z,18.18
2023-09-14T19:08:52.834Z,18.20
2023-09-14T19:11:57.465Z,18.19
2023-09-14T19:15:00.958Z,18.19
2023-09-14T19:18:07.287Z,18.18
2023-09-14T19:21:10.909Z,18.19
2023-09-14T19:24:13.773Z,18.11
2023-09-14T19:27:16.630Z,18.05
2023-09-14T19:30:19.621Z,18.07
2023-09-14T19:33:22.334Z,18.01
2023-09-14T19:36:26.456Z,17.97
2023-09-14T19:39:29.180Z,18.01
2023-09-14T19:42:31.885Z,17.98
2023-09-14T19:45:39.014Z,18.01
2023-09-14T19:48:45.639Z,17.97
2023-09-14T19:51:49.074Z,17.97
2023-09-14T19:54:51.989Z,17.91
2023-09-14T19:57:54.655Z,17.82
2023-09-14T20:00:59.476Z,17.80
2023-09-14T20:04:03.188Z,17.76
2023-09-14T20:07:06.049Z,17.80
2023-09-14T20:10:09.273Z,17.76
2023-09-14T20:13:12.096Z,17.74
2023-09-14T20:16:15.196Z,17.68
2023-09-14T20:19:18.120Z,17.62
2023-09-14T20:22:20.901Z,17.58
2023-09-14T20:25:26.498Z,17.47
2023-09-14T20:28:29.192Z,17.37
2023-09-14T20:31:32.014Z,17.27
2023-09-14T20:34:35.439Z,17.26
2023-09-14T20:37:38.487Z,17.19
2023-09-14T20:40:41.322Z,17.19
2023-09-14T20:43:44.020Z,17.18
2023-09-14T20:46:46.799Z,17.17
2023-09-14T20:49:50.416Z,17.14
2023-09-14T20:52:54.838Z,17.06
2023-09-14T20:55:58.846Z,16.99
2023-09-14T20:59:01.566Z,16.97
2023-09-14T21:02:04.903Z,17.01
2023-09-14T21:05:09.558Z,16.88
2023-09-14T21:08:12.302Z,16.80
2023-09-14T21:11:15.081Z,16.72
2023-09-14T21:14:28.364Z,16.72
2023-09-14T21:17:31.108Z,16.65
2023-09-14T21:20:33.877Z,16.46
2023-09-14T21:23:37.788Z,16.41
2023-09-14T21:26:42.570Z,16.38
2023-09-14T21:29:45.634Z,16.30
2023-09-14T21:32:48.300Z,16.08
2023-09-14T21:35:55.802Z,16.04
2023-09-14T21:38:58.582Z,15.96
2023-09-14T21:42:01.300Z,15.99
2023-09-14T21:45:04.142Z,15.91
2023-09-14T21:48:07.041Z,15.85
2023-09-14T21:51:09.786Z,15.78
2023-09-14T21:54:12.547Z,15.73
2023-09-14T21:57:18.371Z,15.76
2023-09-14T22:00:25.797Z,15.73
2023-09-14T22:03:44.947Z,15.73
2023-09-14T22:06:52.763Z,15.70
2023-09-14T22:09:58.650Z,15.64
2023-09-14T22:13:01.356Z,15.60
2023-09-14T22:16:04.146Z,15.61
2023-09-14T22:19:07.000Z,15.64
2023-09-14T22:22:10.058Z,15.64
2023-09-14T22:25:12.947Z,15.71
2023-09-14T22:28:19.204Z,15.71
2023-09-14T22:31:22.035Z,15.74
2023-09-14T22:34:27.908Z,15.77
2023-09-14T22:37:39.957Z,15.72
2023-09-14T22:40:48.940Z,15.67
2023-09-14T22:43:51.640Z,15.66
2023-09-14T22:46:54.568Z,15.64
2023-09-14T22:49:57.306Z,15.61
2023-09-14T22:53:00.032Z,15.52
2023-09-14T22:56:02.911Z,15.50
2023-09-14T22:59:08.754Z,15.46
2023-09-14T23:02:11.385Z,15.41
2023-09-14T23:05:17.096Z,15.30
2023-09-14T23:08:21.946Z,15.21
2023-09-14T23:11:41.487Z,15.11
2023-09-14T23:14:44.160Z,15.07
2023-09-14T23:17:47.097Z,15.07
2023-09-14T23:20:50.214Z,14.99
2023-09-14T23:23:52.918Z,14.96
2023-09-14T23:26:56.339Z,14.86
2023-09-14T23:29:59.501Z,14.79
2023-09-14T23:33:03.671Z,14.77
2023-09-14T23:36:12.790Z,14.80
2023-09-14T23:39:15.907Z,14.73
2023-09-14T23:42:18.705Z,14.73
2023-09-14T23:45:25.731Z,14.68
2023-09-14T23:48:28.772Z,14.60
2023-09-14T23:51:31.611Z,14.54
2023-09-14T23:54:37.437Z,14.47
2023-09-14T23:57:40.844Z,14.45
